Time;durP1;ratioP1;P1;durP2;ratioP2;P2;SDS_P1;SDS_P2;PMS_P1;PMS_P2;Temp;Humidity;BMP_temperature;BMP_pressure;BME280_temperature;BME280_humidity;BME280_pressure;Samples;Min_cycle;Max_cycle;Signal;HPM_P1;HPM_P2
2022/07/04 00:00:07;;;;;;;3.53;0.55;;;19.40;99.90;;;;;;4848752;29;20286;-76
2022/07/04 00:02:33;;;;;;;4.65;0.70;;;19.40;99.90;;;;;;4849360;29;20022;-76
2022/07/04 00:04:59;;;;;;;4.53;0.93;;;19.40;99.90;;;;;;4848728;29;20128;-77
2022/07/04 00:07:25;;;;;;;3.88;0.82;;;19.40;99.90;;;;;;4850444;29;20041;-76
2022/07/04 00:09:51;;;;;;;2.53;0.60;;;19.30;99.90;;;;;;4848511;29;20067;-76
2022/07/04 00:12:17;;;;;;;3.95;0.95;;;19.30;99.90;;;;;;4848960;29;20026;-76
2022/07/04 00:14:42;;;;;;;2.53;0.80;;;19.30;99.90;;;;;;4845586;29;20110;-76
2022/07/04 00:17:08;;;;;;;2.70;0.90;;;19.30;99.90;;;;;;4847208;29;20026;-76
2022/07/04 00:19:34;;;;;;;3.13;0.77;;;19.30;99.90;;;;;;4850296;29;20034;-76
2022/07/04 00:22:01;;;;;;;5.80;0.98;;;19.30;99.90;;;;;;4850826;29;20104;-76
2022/07/04 00:24:26;;;;;;;2.50;0.90;;;19.30;99.90;;;;;;4847609;29;20095;-76
2022/07/04 00:26:52;;;;;;;5.43;0.70;;;19.30;99.90;;;;;;4850138;29;20260;-77
2022/07/04 00:29:18;;;;;;;2.05;0.50;;;19.30;99.90;;;;;;4849516;29;20369;-76
2022/07/04 00:31:43;;;;;;;2.47;0.77;;;19.30;99.90;;;;;;4847014;29;20062;-76
2022/07/04 00:34:09;;;;;;;2.80;0.80;;;19.30;99.90;;;;;;4848265;29;20030;-76
2022/07/04 00:36:35;;;;;;;1.77;0.65;;;19.30;99.90;;;;;;4849881;29;20357;-76
2022/07/04 00:39:01;;;;;;;3.72;0.90;;;19.30;99.90;;;;;;4849322;29;20057;-76
2022/07/04 00:41:26;;;;;;;2.33;0.70;;;19.30;99.90;;;;;;4849133;29;20049;-76
2022/07/04 00:44:10;;;;;;;2.60;0.70;;;19.30;99.90;;;;;;4845917;29;20030;-76
2022/07/04 00:46:36;;;;;;;4.47;1.10;;;19.20;99.90;;;;;;4849324;29;20083;-76
2022/07/04 00:49:06;;;;;;;3.65;0.68;;;19.20;99.90;;;;;;4846939;29;20385;-76
2022/07/04 00:51:32;;;;;;;4.97;0.88;;;19.10;99.90;;;;;;4849557;29;20045;-77
2022/07/04 00:53:58;;;;;;;2.03;0.60;;;19.10;99.90;;;;;;4838267;29;20268;-77
2022/07/04 00:56:25;;;;;;;3.25;0.95;;;19.00;99.90;;;;;;4845398;29;20055;-76
2022/07/04 00:58:52;;;;;;;3.72;1.08;;;19.00;99.90;;;;;;4842821;29;20031;-76
2022/07/04 01:01:20;;;;;;;8.02;0.80;;;18.90;99.90;;;;;;4837693;29;20421;-76
2022/07/04 01:03:46;;;;;;;5.43;0.75;;;18.90;99.90;;;;;;4849069;29;20049;-76
2022/07/04 01:06:14;;;;;;;2.17;1.10;;;18.90;99.90;;;;;;4850111;29;20040;-76
2022/07/04 01:08:42;;;;;;;5.90;1.30;;;18.80;99.90;;;;;;4848806;29;20086;-76
2022/07/04 01:11:08;;;;;;;8.68;1.20;;;18.70;99.90;;;;;;4847516;29;20022;-76
2022/07/04 01:13:34;;;;;;;2.55;0.90;;;18.60;99.90;;;;;;4843467;29;20317;-76
2022/07/04 01:16:01;;;;;;;4.78;0.98;;;18.60;99.90;;;;;;4850147;29;20033;-76
2022/07/04 01:18:26;;;;;;;5.43;1.00;;;18.60;99.90;;;;;;4849639;29;20085;-76
2022/07/04 01:20:52;;;;;;;3.85;0.93;;;18.60;99.90;;;;;;4849737;29;20322;-76
2022/07/04 01:23:18;;;;;;;5.45;0.98;;;18.60;99.90;;;;;;4849966;29;20306;-76
2022/07/04 01:25:44;;;;;;;7.82;1.10;;;18.50;99.90;;;;;;4846915;29;20195;-76
2022/07/04 01:28:10;;;;;;;4.20;0.80;;;18.50;99.90;;;;;;4850342;29;20288;-76
2022/07/04 01:30:37;;;;;;;5.55;0.80;;;18.50;99.90;;;;;;4853151;29;20252;-76
2022/07/04 01:33:03;;;;;;;2.65;0.80;;;18.50;99.90;;;;;;4852163;29;20045;-76
2022/07/04 01:35:29;;;;;;;4.13;1.15;;;18.50;99.90;;;;;;4852153;29;20034;-76
2022/07/04 01:37:55;;;;;;;6.35;1.80;;;18.50;99.90;;;;;;4852983;29;20026;-76
2022/07/04 01:40:21;;;;;;;3.22;0.80;;;18.40;99.90;;;;;;4850967;29;20030;-76
2022/07/04 01:42:46;;;;;;;3.92;1.05;;;18.40;99.90;;;;;;4852695;29;20022;-76
2022/07/04 01:45:12;;;;;;;4.53;1.05;;;18.40;99.90;;;;;;4853117;29;20041;-76
2022/07/04 01:47:39;;;;;;;4.15;1.08;;;18.30;99.90;;;;;;4852419;29;20104;-76
2022/07/04 01:50:07;;;;;;;3.13;0.88;;;18.30;99.90;;;;;;4850927;29;20045;-76
2022/07/04 01:52:34;;;;;;;3.97;1.02;;;18.20;99.90;;;;;;4849172;29;20030;-76
2022/07/04 01:55:00;;;;;;;4.00;1.10;;;18.20;99.90;;;;;;4836542;29;20056;-77
2022/07/04 01:57:25;;;;;;;2.58;1.00;;;18.20;99.90;;;;;;4852666;29;20030;-76
2022/07/04 02:02:36;;;;;;;7.95;1.05;;;18.10;99.90;;;;;;4852282;29;20106;-76
2022/07/04 02:05:03;;;;;;;4.97;1.00;;;18.10;99.90;;;;;;4844392;29;20407;-76
2022/07/04 02:07:29;;;;;;;5.05;1.05;;;18.00;99.90;;;;;;4852053;29;20034;-76
2022/07/04 02:09:54;;;;;;;4.30;0.90;;;18.00;99.90;;;;;;4852978;29;20054;-76
2022/07/04 02:15:05;;;;;;;4.65;1.52;;;17.90;99.90;;;;;;4853058;29;20079;-76
2022/07/04 02:17:31;;;;;;;2.55;0.98;;;17.80;99.90;;;;;;4852123;29;20026;-76
2022/07/04 02:19:57;;;;;;;7.82;1.10;;;17.90;99.90;;;;;;4850181;29;20089;-76
2022/07/04 02:22:22;;;;;;;3.85;1.13;;;17.80;99.90;;;;;;4852142;29;20025;-76
2022/07/04 02:24:48;;;;;;;5.38;1.00;;;17.80;99.90;;;;;;4850780;29;20105;-76
2022/07/04 02:27:14;;;;;;;3.13;0.93;;;17.80;99.90;;;;;;4849075;29;20063;-77
2022/07/04 02:29:40;;;;;;;1.83;0.90;;;17.80;99.90;;;;;;4851150;29;20140;-76
2022/07/04 02:32:06;;;;;;;3.30;1.05;;;17.70;99.90;;;;;;4849892;29;20067;-77
2022/07/04 02:34:31;;;;;;;3.92;0.90;;;17.70;99.90;;;;;;4851677;29;20034;-76
2022/07/04 02:36:57;;;;;;;5.10;1.10;;;17.60;99.90;;;;;;4849593;29;20033;-77
2022/07/04 02:39:24;;;;;;;3.95;1.08;;;17.60;99.90;;;;;;4849335;29;20037;-76
2022/07/04 02:41:49;;;;;;;5.13;1.20;;;17.60;99.90;;;;;;4849589;29;20345;-76
2022/07/04 02:44:15;;;;;;;8.82;1.27;;;17.50;99.90;;;;;;4846186;29;20041;-76
2022/07/04 02:46:41;;;;;;;5.93;1.10;;;17.50;99.90;;;;;;4850324;29;20225;-76
2022/07/04 02:49:07;;;;;;;4.22;1.20;;;17.40;99.90;;;;;;4850578;29;20098;-76
2022/07/04 02:51:33;;;;;;;3.13;0.90;;;17.40;99.90;;;;;;4850637;29;20047;-76
2022/07/04 02:53:59;;;;;;;2.90;0.95;;;17.40;99.90;;;;;;4842759;29;20448;-76
2022/07/04 02:56:25;;;;;;;5.13;1.30;;;17.30;99.90;;;;;;4844835;29;20030;-76
2022/07/04 02:58:51;;;;;;;7.05;1.30;;;17.40;99.90;;;;;;4851214;29;20030;-76
2022/07/04 03:01:18;;;;;;;3.88;0.90;;;17.30;99.90;;;;;;4851459;29;20274;-76
2022/07/04 03:03:44;;;;;;;13.07;1.65;;;17.30;99.90;;;;;;4848611;29;20050;-76
2022/07/04 03:06:10;;;;;;;5.82;1.15;;;17.20;99.90;;;;;;4851178;29;20037;-76
2022/07/04 03:08:36;;;;;;;5.78;1.17;;;17.20;99.90;;;;;;4850298;29;20033;-76
2022/07/04 03:11:02;;;;;;;5.57;1.20;;;17.10;99.90;;;;;;4847441;29;20283;-77
2022/07/04 03:13:28;;;;;;;6.50;1.48;;;17.20;99.90;;;;;;4844061;29;20097;-76
2022/07/04 03:15:54;;;;;;;5.28;1.02;;;17.20;99.90;;;;;;4849863;29;20317;-76
2022/07/04 03:18:20;;;;;;;4.78;1.27;;;17.20;99.90;;;;;;4847455;29;20400;-76
2022/07/04 03:20:46;;;;;;;2.17;0.88;;;17.10;99.90;;;;;;4849038;29;20417;-76
2022/07/04 03:23:12;;;;;;;4.03;1.20;;;17.10;99.90;;;;;;4848857;29;20074;-76
2022/07/04 03:25:37;;;;;;;5.22;1.15;;;17.00;99.90;;;;;;4847961;29;20034;-76
2022/07/04 03:28:04;;;;;;;3.30;0.82;;;17.00;99.90;;;;;;4849321;29;20063;-76
2022/07/04 03:30:29;;;;;;;7.80;1.55;;;17.00;99.90;;;;;;4847929;29;20457;-76
2022/07/04 03:32:55;;;;;;;4.25;0.90;;;16.90;99.90;;;;;;4847979;29;20036;-76
2022/07/04 03:35:21;;;;;;;6.35;0.95;;;16.90;99.90;;;;;;4847933;29;20082;-76
2022/07/04 03:37:46;;;;;;;4.20;1.27;;;16.90;99.90;;;;;;4848102;29;20057;-76
2022/07/04 03:40:12;;;;;;;3.88;1.10;;;16.90;99.90;;;;;;4848900;29;20030;-76
2022/07/04 03:42:38;;;;;;;3.42;0.90;;;16.90;99.90;;;;;;4849258;29;20052;-76
2022/07/04 03:45:05;;;;;;;3.65;0.93;;;16.80;99.90;;;;;;4848052;29;20040;-76
2022/07/04 03:47:31;;;;;;;2.95;1.00;;;16.80;99.90;;;;;;4845966;29;20125;-76
2022/07/04 03:49:57;;;;;;;3.05;1.23;;;16.80;99.90;;;;;;4846382;29;20061;-76
2022/07/04 03:52:23;;;;;;;3.35;0.88;;;16.80;99.90;;;;;;4849951;29;20037;-76
2022/07/04 03:54:49;;;;;;;4.05;1.20;;;16.70;99.90;;;;;;4829772;29;20053;-76
2022/07/04 03:57:14;;;;;;;2.67;0.95;;;16.70;99.90;;;;;;4838421;29;20314;-76
2022/07/04 03:59:40;;;;;;;2.75;1.00;;;16.70;99.90;;;;;;4849577;29;20042;-76
2022/07/04 04:02:06;;;;;;;4.57;1.00;;;16.60;99.90;;;;;;4849737;29;20026;-76
2022/07/04 04:07:16;;;;;;;3.70;1.00;;;16.60;99.90;;;;;;4848367;29;20090;-77
2022/07/04 04:09:42;;;;;;;5.53;0.98;;;16.50;99.90;;;;;;4849854;29;20326;-76
2022/07/04 04:12:08;;;;;;;6.45;1.00;;;16.50;99.90;;;;;;4849660;29;20038;-77
2022/07/04 04:14:33;;;;;;;3.95;1.05;;;16.50;99.90;;;;;;4850069;29;20041;-76
2022/07/04 04:16:59;;;;;;;4.88;1.23;;;16.50;99.90;;;;;;4849872;29;20106;-76
2022/07/04 04:19:25;;;;;;;3.67;0.80;;;16.40;99.90;;;;;;4847567;29;20036;-76
2022/07/04 04:21:50;;;;;;;3.20;1.25;;;16.40;99.90;;;;;;4844409;29;20133;-76
2022/07/04 04:24:16;;;;;;;7.65;1.38;;;16.40;99.90;;;;;;4850196;29;20082;-77
2022/07/04 04:26:41;;;;;;;2.95;1.00;;;16.40;99.90;;;;;;4845528;29;20483;-76
2022/07/04 04:29:07;;;;;;;6.20;1.33;;;16.40;99.90;;;;;;4848864;29;20094;-76
2022/07/04 04:31:33;;;;;;;5.53;1.00;;;16.30;99.90;;;;;;4848309;29;20034;-77
2022/07/04 04:33:58;;;;;;;3.35;1.10;;;16.30;99.90;;;;;;4850065;29;20046;-76
2022/07/04 04:36:24;;;;;;;5.15;1.20;;;16.30;99.90;;;;;;4848965;29;20365;-76
2022/07/04 04:38:50;;;;;;;4.38;1.38;;;16.30;99.90;;;;;;4847987;29;20037;-76
2022/07/04 04:41:18;;;;;;;4.15;1.35;;;16.30;99.90;;;;;;4849395;29;20032;-76
2022/07/04 04:43:45;;;;;;;5.72;1.20;;;16.30;99.90;;;;;;4850015;29;20037;-76
2022/07/04 04:46:10;;;;;;;3.20;1.15;;;16.30;99.90;;;;;;4849545;29;20240;-76
2022/07/04 04:48:36;;;;;;;4.15;1.00;;;16.20;99.90;;;;;;4849343;29;20045;-76
2022/07/04 04:51:02;;;;;;;4.28;1.58;;;16.20;99.90;;;;;;4847954;29;20045;-76
2022/07/04 04:53:27;;;;;;;3.08;1.00;;;16.30;99.90;;;;;;4843366;29;20022;-76
2022/07/04 04:55:54;;;;;;;5.30;1.55;;;16.30;99.90;;;;;;4835533;29;20044;-76
2022/07/04 04:58:20;;;;;;;6.13;1.33;;;16.20;99.90;;;;;;4848042;29;20034;-76
2022/07/04 05:00:48;;;;;;;8.50;1.50;;;16.20;99.90;;;;;;4848369;29;20026;-76
2022/07/04 05:03:14;;;;;;;4.60;1.17;;;16.30;99.90;;;;;;4847565;29;20353;-76
2022/07/04 05:05:39;;;;;;;5.35;1.10;;;16.20;99.90;;;;;;4849840;29;20021;-76
2022/07/04 05:08:05;;;;;;;4.78;1.30;;;16.20;99.90;;;;;;4842640;29;20052;-77
2022/07/04 05:10:30;;;;;;;2.67;0.73;;;16.20;99.90;;;;;;4848625;29;20187;-76
2022/07/04 05:12:57;;;;;;;3.45;1.02;;;16.30;99.90;;;;;;4827521;29;20175;-75
2022/07/04 05:15:22;;;;;;;5.07;1.45;;;16.20;99.90;;;;;;4820964;29;20151;-76
2022/07/04 05:17:48;;;;;;;6.20;1.00;;;16.30;99.90;;;;;;4821357;29;20038;-75
2022/07/04 05:20:14;;;;;;;7.45;1.65;;;16.30;99.90;;;;;;4820324;29;20105;-76
2022/07/04 05:22:39;;;;;;;7.45;1.20;;;16.40;99.90;;;;;;4820808;29;20122;-76
2022/07/04 05:25:06;;;;;;;3.40;0.80;;;16.40;99.90;;;;;;4820250;29;20031;-76
2022/07/04 05:27:31;;;;;;;5.13;1.67;;;16.50;99.90;;;;;;4820400;29;20062;-76
2022/07/04 05:29:58;;;;;;;4.40;1.10;;;16.50;99.90;;;;;;4820330;29;20527;-76
2022/07/04 05:32:25;;;;;;;3.67;0.77;;;16.50;99.90;;;;;;4820282;29;20026;-76
2022/07/04 05:34:51;;;;;;;3.85;1.00;;;16.50;99.90;;;;;;4830306;29;20133;-76
2022/07/04 05:37:16;;;;;;;3.45;0.93;;;16.60;99.90;;;;;;4842137;29;20338;-75
2022/07/04 05:39:42;;;;;;;7.07;1.40;;;16.60;99.90;;;;;;4841710;29;20041;-76
2022/07/04 05:42:08;;;;;;;5.50;1.05;;;16.70;99.90;;;;;;4838582;29;20034;-76
2022/07/04 05:44:33;;;;;;;5.63;1.10;;;16.70;99.90;;;;;;4841460;29;20058;-76
2022/07/04 05:46:59;;;;;;;6.18;1.80;;;16.90;99.90;;;;;;4838917;29;20037;-75
2022/07/04 05:49:25;;;;;;;4.88;1.55;;;17.00;99.90;;;;;;4840464;29;20101;-75
2022/07/04 05:51:50;;;;;;;4.25;1.08;;;16.90;99.90;;;;;;4840472;29;20110;-76
2022/07/04 05:54:16;;;;;;;6.47;1.40;;;17.00;99.90;;;;;;4828436;29;20391;-75
2022/07/04 05:56:42;;;;;;;6.38;1.33;;;17.00;99.90;;;;;;4837638;29;20022;-76
2022/07/04 05:59:09;;;;;;;3.83;1.02;;;17.00;99.90;;;;;;4838939;29;20522;-75
2022/07/04 06:01:36;;;;;;;7.00;1.17;;;17.10;99.90;;;;;;4838762;29;20117;-76
2022/07/04 06:04:02;;;;;;;6.60;1.10;;;17.00;99.90;;;;;;4842766;29;20085;-76
2022/07/04 06:06:27;;;;;;;5.97;1.00;;;17.10;99.90;;;;;;4838860;29;20496;-76
2022/07/04 06:08:53;;;;;;;2.90;0.95;;;17.00;99.90;;;;;;4838431;29;20037;-76
2022/07/04 06:11:19;;;;;;;4.80;1.00;;;17.00;99.90;;;;;;4838568;29;20491;-76
2022/07/04 06:13:45;;;;;;;5.47;1.05;;;17.00;99.90;;;;;;4838631;29;20018;-76
2022/07/04 06:16:10;;;;;;;8.05;1.80;;;17.00;99.90;;;;;;4841544;29;20113;-76
2022/07/04 06:18:36;;;;;;;5.40;1.17;;;17.10;99.90;;;;;;4841681;29;20432;-76
2022/07/04 06:21:02;;;;;;;4.80;1.10;;;17.20;99.90;;;;;;4841162;29;20038;-76
2022/07/04 06:23:28;;;;;;;3.83;1.27;;;17.30;99.90;;;;;;4840715;29;20026;-76
2022/07/04 06:25:54;;;;;;;7.30;1.40;;;17.40;99.90;;;;;;4840615;29;20026;-76
2022/07/04 06:28:19;;;;;;;3.75;1.38;;;17.50;99.90;;;;;;4840979;29;20413;-76
2022/07/04 06:30:45;;;;;;;4.63;0.93;;;17.60;99.90;;;;;;4840420;29;20026;-76
2022/07/04 06:33:11;;;;;;;7.72;1.02;;;17.60;99.90;;;;;;4840447;29;20037;-76
2022/07/04 06:35:46;;;;;;;6.30;1.23;;;17.70;99.90;;;;;;4840460;29;20034;-76
2022/07/04 06:38:13;;;;;;;7.38;1.20;;;17.90;99.90;;;;;;4841705;29;20038;-76
2022/07/04 06:40:40;;;;;;;5.03;1.08;;;17.90;99.90;;;;;;4840969;29;20383;-76
2022/07/04 06:43:06;;;;;;;5.15;1.30;;;17.90;99.90;;;;;;4841561;29;20038;-76
2022/07/04 06:45:33;;;;;;;5.40;1.40;;;18.00;99.90;;;;;;4841465;29;20029;-76
2022/07/04 06:47:59;;;;;;;8.50;1.30;;;18.00;99.90;;;;;;4841042;29;20037;-76
2022/07/04 06:50:25;;;;;;;7.03;1.42;;;18.00;99.90;;;;;;4841313;29;20487;-76
2022/07/04 06:52:51;;;;;;;9.27;1.42;;;18.10;99.90;;;;;;4840975;29;20040;-76
2022/07/04 06:55:40;;;;;;;4.15;1.20;;;18.00;99.90;;;;;;4828170;29;20025;-76
2022/07/04 06:58:06;;;;;;;9.73;1.55;;;18.00;99.90;;;;;;4840902;29;20060;-76
2022/07/04 07:00:33;;;;;;;5.15;1.25;;;18.00;99.90;;;;;;4840951;29;20037;-76
2022/07/04 07:03:00;;;;;;;9.38;1.63;;;18.10;99.90;;;;;;4840837;29;20113;-76
2022/07/04 07:05:26;;;;;;;8.75;1.33;;;18.10;99.90;;;;;;4840870;29;20022;-76
2022/07/04 07:07:52;;;;;;;4.72;1.00;;;18.10;99.90;;;;;;4840867;29;20018;-77
2022/07/04 07:10:19;;;;;;;5.25;1.50;;;18.20;99.90;;;;;;4840726;29;20030;-76
2022/07/04 07:12:44;;;;;;;5.00;1.50;;;18.30;99.90;;;;;;4840821;29;20142;-76
2022/07/04 07:15:10;;;;;;;6.38;1.20;;;18.40;99.90;;;;;;4840592;29;20069;-76
2022/07/04 07:17:36;;;;;;;5.25;1.20;;;18.50;99.90;;;;;;4840551;29;20080;-76
2022/07/04 07:20:03;;;;;;;6.63;1.40;;;18.60;99.90;;;;;;4839349;29;20050;-76
2022/07/04 07:22:28;;;;;;;5.38;1.80;;;18.70;99.90;;;;;;4840461;29;20026;-76
2022/07/04 07:24:54;;;;;;;8.02;1.38;;;18.70;99.90;;;;;;4840461;29;20449;-76
2022/07/04 07:27:20;;;;;;;6.40;1.30;;;18.80;99.90;;;;;;4840706;29;20026;-76
2022/07/04 07:30:17;;;;;;;6.13;1.67;;;18.90;99.90;;;;;;4840392;29;20166;-76
2022/07/04 07:32:42;;;;;;;3.53;1.40;;;19.10;99.90;;;;;;4840474;29;20372;-76
2022/07/04 07:35:08;;;;;;;7.63;1.50;;;19.20;99.90;;;;;;4840471;29;20041;-76
2022/07/04 07:37:34;;;;;;;5.32;1.25;;;19.30;99.90;;;;;;4840424;29;20126;-76
2022/07/04 07:40:01;;;;;;;5.93;1.33;;;19.30;99.90;;;;;;4840304;29;20041;-76
2022/07/04 07:42:27;;;;;;;7.78;1.25;;;19.40;99.90;;;;;;4840028;29;20387;-76
2022/07/04 07:44:53;;;;;;;3.33;1.40;;;19.50;99.90;;;;;;4840107;29;20026;-76
2022/07/04 07:47:19;;;;;;;7.15;1.38;;;19.60;99.90;;;;;;4840081;29;20026;-76
2022/07/04 07:49:47;;;;;;;7.05;1.20;;;19.70;99.90;;;;;;4840131;29;20042;-76
2022/07/04 07:52:13;;;;;;;5.53;1.30;;;19.90;99.90;;;;;;4840364;29;20472;-76
2022/07/04 07:54:39;;;;;;;7.43;1.27;;;20.10;99.90;;;;;;4827276;29;20075;-77
2022/07/04 07:57:05;;;;;;;9.43;1.02;;;20.30;99.90;;;;;;4839968;29;20517;-76
2022/07/04 07:59:30;;;;;;;5.20;1.08;;;20.40;99.90;;;;;;4840053;29;20526;-76
2022/07/04 08:01:56;;;;;;;5.13;1.10;;;20.60;99.90;;;;;;4839812;29;20026;-76
2022/07/04 08:04:34;;;;;;;6.38;1.15;;;20.80;99.90;;;;;;4839626;29;20045;-76
2022/07/04 08:07:00;;;;;;;4.97;1.15;;;20.70;99.90;;;;;;4839741;29;20034;-76
2022/07/04 08:09:26;;;;;;;3.55;1.00;;;20.70;99.90;;;;;;4839652;29;20369;-76
2022/07/04 08:11:52;;;;;;;3.45;0.95;;;20.60;99.90;;;;;;4839645;29;20134;-76
2022/07/04 08:14:17;;;;;;;6.25;1.23;;;20.50;99.90;;;;;;4839751;29;20030;-76
2022/07/04 08:16:43;;;;;;;4.47;1.10;;;20.50;99.90;;;;;;4839486;29;20491;-76
2022/07/04 08:19:09;;;;;;;4.07;0.90;;;20.50;99.90;;;;;;4839578;29;20030;-76
2022/07/04 08:21:34;;;;;;;4.15;1.08;;;20.50;99.90;;;;;;4839548;29;20030;-76
2022/07/04 08:24:00;;;;;;;4.82;1.17;;;20.70;99.90;;;;;;4839865;29;20055;-76
2022/07/04 08:26:26;;;;;;;7.43;1.05;;;20.80;99.90;;;;;;4839841;29;20029;-76
2022/07/04 08:28:52;;;;;;;6.95;1.20;;;20.90;99.90;;;;;;4839441;29;20495;-76
2022/07/04 08:31:18;;;;;;;7.05;0.90;;;21.00;99.90;;;;;;4838159;29;20026;-76
2022/07/04 08:33:46;;;;;;;9.23;1.20;;;21.10;99.90;;;;;;4839598;29;20529;-76
2022/07/04 08:36:12;;;;;;;8.68;1.70;;;21.20;99.90;;;;;;4839509;29;20055;-76
2022/07/04 08:38:38;;;;;;;5.22;1.15;;;21.20;99.90;;;;;;4839122;29;20030;-76
2022/07/04 08:41:04;;;;;;;5.70;1.05;;;21.20;99.90;;;;;;4838974;29;20400;-76
2022/07/04 08:43:33;;;;;;;3.80;0.98;;;21.20;99.90;;;;;;4839237;29;20086;-76
2022/07/04 08:46:02;;;;;;;5.60;1.50;;;21.10;99.90;;;;;;4839005;29;20171;-76
2022/07/04 08:48:30;;;;;;;3.25;0.93;;;21.00;99.90;;;;;;4839231;29;20432;-76
2022/07/04 08:51:06;;;;;;;7.30;1.33;;;21.10;99.90;;;;;;4839260;29;20029;-76
2022/07/04 08:53:35;;;;;;;7.78;1.23;;;21.20;99.90;;;;;;4834314;29;20031;-76
2022/07/04 08:58:48;;;;;;;3.55;1.02;;;21.70;99.90;;;;;;4839601;29;20462;-77
2022/07/04 09:01:14;;;;;;;3.17;1.05;;;21.90;99.90;;;;;;4839057;29;20021;-77
2022/07/04 09:03:42;;;;;;;4.35;0.85;;;22.10;99.90;;;;;;4838684;29;20042;-77
2022/07/04 09:06:09;;;;;;;4.30;1.08;;;22.20;99.90;;;;;;4838989;29;20037;-76
2022/07/04 09:08:35;;;;;;;3.72;1.30;;;22.40;99.90;;;;;;4838890;29;20037;-77
2022/07/04 09:11:02;;;;;;;6.00;1.60;;;22.50;99.90;;;;;;4839307;29;20030;-77
2022/07/04 09:13:29;;;;;;;6.68;1.33;;;22.60;99.90;;;;;;4839078;29;20041;-77
2022/07/04 09:15:55;;;;;;;4.05;1.15;;;22.70;99.90;;;;;;4839003;29;20030;-76
2022/07/04 09:18:27;;;;;;;4.68;1.52;;;22.70;99.90;;;;;;4839116;29;20042;-76
2022/07/04 09:20:55;;;;;;;4.60;1.05;;;22.70;99.90;;;;;;4838994;29;20037;-77
2022/07/04 09:23:23;;;;;;;4.68;1.10;;;22.70;99.90;;;;;;4838850;29;20018;-77
2022/07/04 09:26:06;;;;;;;5.38;1.02;;;22.70;99.90;;;;;;4838678;29;20114;-77
2022/07/04 09:28:32;;;;;;;2.90;1.00;;;22.80;99.90;;;;;;4837408;29;20026;-77
2022/07/04 09:30:58;;;;;;;4.65;1.27;;;23.00;99.90;;;;;;4838724;29;20022;-76
2022/07/04 09:33:57;;;;;;;3.42;1.20;;;23.10;99.90;;;;;;4838891;29;20026;-77
2022/07/04 09:36:25;;;;;;;5.32;1.52;;;23.30;99.90;;;;;;4838935;29;20034;-77
2022/07/04 09:39:15;;;;;;;4.07;0.90;;;23.40;99.90;;;;;;4837479;29;20030;-77
2022/07/04 09:42:00;;;;;;;2.45;0.73;;;23.50;99.90;;;;;;4838610;29;20086;-77
2022/07/04 09:44:48;;;;;;;3.05;1.13;;;23.60;99.90;;;;;;4838712;29;20085;-77
2022/07/04 09:47:27;;;;;;;6.00;0.90;;;23.70;99.20;;;;;;4838484;29;20432;-77
2022/07/04 09:50:14;;;;;;;6.10;1.00;;;23.60;99.30;;;;;;4842037;29;20145;-77
2022/07/04 09:52:51;;;;;;;4.68;1.17;;;23.70;99.80;;;;;;4842268;29;20249;-77
2022/07/04 09:55:34;;;;;;;5.15;0.80;;;23.80;99.30;;;;;;4829235;29;20050;-77
2022/07/04 09:58:07;;;;;;;5.03;0.90;;;23.80;99.00;;;;;;4842156;29;20058;-77
2022/07/04 10:00:39;;;;;;;5.65;1.30;;;24.00;98.80;;;;;;4841954;29;20601;-76
2022/07/04 10:03:21;;;;;;;4.32;0.80;;;24.00;98.80;;;;;;4841872;29;20472;-76
2022/07/04 10:06:08;;;;;;;3.30;0.60;;;24.00;99.30;;;;;;4841793;29;20034;-76
2022/07/04 10:08:34;;;;;;;3.22;0.80;;;24.10;99.10;;;;;;4841738;29;20034;-76
2022/07/04 10:11:02;;;;;;;3.47;0.60;;;24.20;97.80;;;;;;4841896;29;20109;-76
2022/07/04 10:13:28;;;;;;;2.30;0.40;;;24.20;97.20;;;;;;4841611;29;20101;-76
2022/07/04 10:15:54;;;;;;;2.65;0.60;;;24.20;96.80;;;;;;4841674;29;20133;-76
2022/07/04 10:18:21;;;;;;;5.97;0.70;;;24.10;97.70;;;;;;4841592;29;20034;-75
2022/07/04 10:20:51;;;;;;;3.28;0.63;;;24.20;97.60;;;;;;4841507;29;20052;-76
2022/07/04 10:23:18;;;;;;;5.15;0.80;;;24.20;96.80;;;;;;4841885;29;20038;-76
2022/07/04 10:25:53;;;;;;;2.47;0.73;;;24.10;97.20;;;;;;4841383;29;20066;-75
2022/07/04 10:28:19;;;;;;;4.88;1.30;;;24.20;98.20;;;;;;4841499;29;20488;-76
2022/07/04 10:30:51;;;;;;;8.38;1.30;;;24.30;98.20;;;;;;4841160;29;20041;-75
2022/07/04 10:33:21;;;;;;;2.70;0.68;;;24.50;98.10;;;;;;4841592;29;20053;-75
2022/07/04 10:35:56;;;;;;;1.77;0.70;;;24.50;97.70;;;;;;4841577;29;20072;-76
2022/07/04 10:38:27;;;;;;;2.75;0.65;;;24.50;96.80;;;;;;4841617;29;20652;-76
2022/07/04 10:40:57;;;;;;;6.90;1.90;;;24.50;96.00;;;;;;4841222;29;20022;-76
2022/07/04 10:43:34;;;;;;;5.53;0.90;;;24.40;96.90;;;;;;4832459;29;20033;-76
2022/07/04 10:46:05;;;;;;;7.93;1.08;;;24.50;96.90;;;;;;4838315;29;20114;-75
2022/07/04 10:48:31;;;;;;;4.32;0.70;;;24.60;95.80;;;;;;4841047;29;20106;-75
2022/07/04 10:51:06;;;;;;;2.03;0.63;;;24.60;95.10;;;;;;4841126;29;20090;-76
2022/07/04 10:53:53;;;;;;;2.75;0.50;;;24.60;96.30;;;;;;4836348;29;20023;-76
2022/07/04 10:56:18;;;;;;;4.53;0.80;;;24.70;95.80;;;;;;4835536;29;20038;-76
2022/07/04 10:58:44;;;;;;;6.38;0.75;;;24.80;96.00;;;;;;4841133;29;20030;-76
2022/07/04 11:01:14;;;;;;;2.22;0.55;;;24.80;94.90;;;;;;4840434;29;20022;-76
2022/07/04 11:03:53;;;;;;;3.83;0.70;;;24.70;94.40;;;;;;4840505;29;20038;-76
2022/07/04 11:06:42;;;;;;;2.35;0.63;;;24.60;95.20;;;;;;4840842;29;20437;-76
2022/07/04 11:09:25;;;;;;;3.08;0.70;;;24.80;95.20;;;;;;4840828;29;20423;-76
2022/07/04 11:12:00;;;;;;;3.22;0.65;;;25.10;94.30;;;;;;4840950;29;20026;-76
2022/07/04 11:14:34;;;;;;;1.65;0.50;;;25.30;94.40;;;;;;4840988;29;20034;-76
2022/07/04 11:17:00;;;;;;;5.90;0.70;;;25.30;93.90;;;;;;4840575;29;20447;-76
2022/07/04 11:19:27;;;;;;;3.15;1.02;;;25.20;94.90;;;;;;4840789;29;20034;-76
2022/07/04 11:21:54;;;;;;;2.85;0.93;;;25.30;95.30;;;;;;4840698;29;20102;-76
2022/07/04 11:24:21;;;;;;;3.95;1.08;;;25.40;96.20;;;;;;4840947;29;20049;-76
2022/07/04 11:26:46;;;;;;;3.92;0.95;;;25.50;95.80;;;;;;4840628;29;20053;-76
2022/07/04 11:29:13;;;;;;;5.47;0.90;;;25.50;95.70;;;;;;4840652;29;20053;-76
2022/07/04 11:31:42;;;;;;;6.35;0.90;;;25.40;95.40;;;;;;4840293;29;20040;-76
2022/07/04 11:34:08;;;;;;;4.13;1.00;;;25.40;95.80;;;;;;4839229;29;20499;-76
2022/07/04 11:36:34;;;;;;;3.58;0.80;;;25.30;95.00;;;;;;4840583;29;20445;-76
2022/07/04 11:39:09;;;;;;;3.22;0.90;;;25.30;95.70;;;;;;4840441;29;20042;-76
2022/07/04 11:47:19;;;;;;;5.88;1.13;;;25.10;95.70;;;;;;4840096;29;20044;-76
2022/07/04 11:49:57;;;;;;;5.22;1.00;;;25.10;96.50;;;;;;4840217;29;20042;-76
2022/07/04 11:52:24;;;;;;;5.20;0.90;;;25.40;95.80;;;;;;4840081;29;20048;-76
2022/07/04 11:54:51;;;;;;;5.53;1.00;;;25.40;95.90;;;;;;4827216;29;20297;-76
2022/07/04 11:57:25;;;;;;;4.13;0.90;;;25.50;96.20;;;;;;4840145;29;20029;-76
2022/07/04 12:00:09;;;;;;;7.20;0.90;;;25.50;95.70;;;;;;4839966;29;20136;-76
2022/07/04 12:02:36;;;;;;;5.00;1.00;;;25.30;95.90;;;;;;4839818;29;20030;-76
2022/07/04 12:05:04;;;;;;;3.33;0.90;;;25.40;95.70;;;;;;4838795;29;20026;-76
2022/07/04 12:07:32;;;;;;;3.67;0.80;;;25.40;95.70;;;;;;4839799;29;20029;-76
2022/07/04 12:10:12;;;;;;;5.03;1.00;;;25.60;95.90;;;;;;4839605;29;20510;-76
2022/07/04 12:12:58;;;;;;;3.47;1.13;;;25.50;97.60;;;;;;4839309;29;20026;-76
2022/07/04 12:15:35;;;;;;;4.85;1.10;;;25.40;97.20;;;;;;4839527;29;20101;-76
2022/07/04 12:18:01;;;;;;;3.05;1.17;;;25.40;97.20;;;;;;4830081;29;20023;-76
2022/07/04 12:20:27;;;;;;;4.28;1.25;;;25.30;96.50;;;;;;4835558;29;20457;-76
2022/07/04 12:22:59;;;;;;;4.07;0.73;;;25.30;96.10;;;;;;4839780;29;20499;-76
2022/07/04 12:25:37;;;;;;;2.65;0.82;;;25.20;96.00;;;;;;4839515;29;20029;-76
2022/07/04 12:28:07;;;;;;;4.78;0.98;;;25.30;96.40;;;;;;4839554;29;20042;-76
2022/07/04 12:30:38;;;;;;;4.28;1.08;;;25.60;95.60;;;;;;4839084;29;20038;-76
2022/07/04 12:33:08;;;;;;;5.70;1.00;;;25.80;96.00;;;;;;4839641;29;20125;-76
2022/07/04 12:35:39;;;;;;;9.80;1.00;;;25.70;95.90;;;;;;4839705;29;20079;-76
2022/07/04 12:38:28;;;;;;;11.75;1.65;;;25.50;96.50;;;;;;4839606;29;20556;-76
2022/07/04 12:40:55;;;;;;;3.92;1.33;;;25.50;98.90;;;;;;4839232;29;20030;-76
2022/07/04 12:43:23;;;;;;;6.20;1.20;;;25.40;98.40;;;;;;4839465;29;20038;-75
2022/07/04 12:45:50;;;;;;;6.03;1.13;;;25.60;98.30;;;;;;4839091;29;20030;-76
2022/07/04 12:48:23;;;;;;;5.47;1.48;;;25.50;99.20;;;;;;4839210;29;20030;-76
2022/07/04 12:50:49;;;;;;;5.70;1.30;;;25.70;98.40;;;;;;4839586;29;20084;-76
2022/07/04 12:53:16;;;;;;;7.25;1.67;;;25.80;98.60;;;;;;4836744;29;20293;-76
2022/07/04 12:55:44;;;;;;;8.55;2.08;;;25.80;98.80;;;;;;4829521;29;20053;-76
2022/07/04 12:58:10;;;;;;;7.13;1.40;;;25.90;98.60;;;;;;4839242;29;20033;-76
2022/07/04 13:00:36;;;;;;;13.38;1.58;;;25.90;98.00;;;;;;4839197;29;20142;-76
2022/07/04 13:03:03;;;;;;;6.95;1.55;;;25.60;98.50;;;;;;4839077;29;20515;-76
2022/07/04 13:05:29;;;;;;;4.90;1.25;;;25.70;98.40;;;;;;4839044;29;20057;-76